Time;durP1;ratioP1;P1;durP2;ratioP2;P2;SDS_P1;SDS_P2;PMS_P1;PMS_P2;Temp;Humidity;BMP_temperature;BMP_pressure;BME280_temperature;BME280_humidity;BME280_pressure;Samples;Min_cycle;Max_cycle;Signal;HPM_P1;HPM_P2
2023/05/06 00:01:21;;;;;;;8.77;7.87;;;;;;;;;;5056017;28;20229;-61
2023/05/06 00:03:48;;;;;;;17.53;11.57;;;;;;;;;;5062156;28;20217;-62
2023/05/06 00:06:16;;;;;;;9.57;8.23;;;;;;;;;;5056135;28;20225;-64
2023/05/06 00:08:44;;;;;;;8.73;7.93;;;;;;;;;;5042311;28;20234;-62
2023/05/06 00:11:13;;;;;;;8.90;8.00;;;;;;;;;;5053195;28;20213;-63
2023/05/06 00:13:41;;;;;;;8.80;7.53;;;;;;;;;;5036048;28;20637;-62
2023/05/06 00:16:09;;;;;;;9.37;8.17;;;;;;;;;;5036212;28;20237;-62
2023/05/06 00:18:36;;;;;;;8.30;7.57;;;;;;;;;;5058969;28;20659;-63
2023/05/06 00:21:04;;;;;;;8.67;7.73;;;;;;;;;;5038340;28;20245;-62
2023/05/06 00:23:32;;;;;;;9.60;8.60;;;;;;;;;;5056619;28;20230;-62
2023/05/06 00:25:59;;;;;;;9.23;8.33;;;;;;;;;;5056561;28;20225;-62
2023/05/06 00:28:28;;;;;;;9.73;8.73;;;;;;;;;;5036272;28;20198;-62
2023/05/06 00:30:56;;;;;;;10.77;8.57;;;;;;;;;;5054430;28;20213;-62
2023/05/06 00:33:23;;;;;;;8.77;7.97;;;;;;;;;;5040252;28;20317;-63
2023/05/06 00:35:51;;;;;;;9.30;8.40;;;;;;;;;;5053824;28;20644;-63
2023/05/06 00:38:19;;;;;;;9.03;8.10;;;;;;;;;;5042690;28;20245;-63
2023/05/06 00:40:46;;;;;;;9.47;8.07;;;;;;;;;;5041186;28;20233;-63
2023/05/06 00:43:15;;;;;;;9.40;8.50;;;;;;;;;;5058018;28;20267;-63
2023/05/06 00:45:44;;;;;;;8.40;7.37;;;;;;;;;;5039238;28;20225;-62
2023/05/06 00:48:12;;;;;;;9.27;8.33;;;;;;;;;;5042403;28;20698;-63
2023/05/06 00:50:40;;;;;;;10.07;9.07;;;;;;;;;;5042391;28;20238;-62
2023/05/06 00:53:09;;;;;;;11.83;9.27;;;;;;;;;;5037760;28;20217;-63
2023/05/06 00:55:37;;;;;;;10.63;9.07;;;;;;;;;;5037829;28;20221;-63
2023/05/06 00:58:06;;;;;;;12.70;10.40;;;;;;;;;;5052461;28;20197;-62
2023/05/06 01:00:35;;;;;;;11.27;10.07;;;;;;;;;;5037593;28;20233;-64
2023/05/06 01:03:02;;;;;;;9.70;8.70;;;;;;;;;;5058163;28;20289;-64
2023/05/06 01:05:47;;;;;;;10.13;9.17;;;;;;;;;;5056510;28;20260;-64
2023/05/06 01:08:25;;;;;;;12.57;9.53;;;;;;;;;;5055649;28;20233;-63
2023/05/06 01:10:57;;;;;;;11.13;9.17;;;;;;;;;;5039546;28;20212;-64
2023/05/06 01:13:45;;;;;;;13.97;12.23;;;;;;;;;;5076461;28;20197;-61
2023/05/06 01:16:14;;;;;;;11.00;9.63;;;;;;;;;;5036178;28;20598;-63
2023/05/06 01:18:44;;;;;;;34.87;23.10;;;;;;;;;;5038323;28;20244;-62
2023/05/06 01:21:12;;;;;;;36.10;22.67;;;;;;;;;;5055271;28;20711;-63
2023/05/06 01:23:50;;;;;;;13.37;11.63;;;;;;;;;;5042251;28;20235;-63
2023/05/06 01:26:18;;;;;;;10.90;9.80;;;;;;;;;;5057092;28;20255;-64
2023/05/06 01:28:46;;;;;;;9.97;9.07;;;;;;;;;;5040221;28;20208;-62
2023/05/06 01:31:26;;;;;;;9.23;8.40;;;;;;;;;;5056596;28;20240;-63
2023/05/06 01:34:10;;;;;;;8.43;7.63;;;;;;;;;;5035608;28;20216;-62
2023/05/06 01:36:56;;;;;;;8.90;8.00;;;;;;;;;;5055598;28;20251;-63
2023/05/06 01:39:25;;;;;;;9.20;8.30;;;;;;;;;;5058596;28;20218;-63
2023/05/06 01:41:56;;;;;;;10.77;8.80;;;;;;;;;;5053582;28;20245;-63
2023/05/06 01:44:25;;;;;;;14.13;8.50;;;;;;;;;;5049639;28;20212;-62
2023/05/06 01:46:53;;;;;;;10.23;8.30;;;;;;;;;;5057095;28;20263;-63
2023/05/06 01:49:22;;;;;;;10.27;8.80;;;;;;;;;;5060820;28;20202;-62
2023/05/06 01:51:50;;;;;;;10.03;8.97;;;;;;;;;;5034024;28;20228;-64
2023/05/06 01:54:17;;;;;;;9.30;8.40;;;;;;;;;;5052846;28;20737;-63
2023/05/06 01:56:45;;;;;;;11.20;9.43;;;;;;;;;;5057575;28;20615;-63
2023/05/06 01:59:12;;;;;;;10.70;9.60;;;;;;;;;;5032841;28;20202;-62
2023/05/06 02:01:40;;;;;;;10.07;9.07;;;;;;;;;;5051908;28;20209;-63
2023/05/06 02:04:07;;;;;;;10.27;9.00;;;;;;;;;;5053081;28;20285;-63
2023/05/06 02:06:35;;;;;;;10.23;8.17;;;;;;;;;;5036364;28;20222;-63
2023/05/06 02:09:03;;;;;;;11.23;10.13;;;;;;;;;;5041032;28;22535;-63
2023/05/06 02:11:30;;;;;;;11.47;9.87;;;;;;;;;;5059866;28;20284;-62
2023/05/06 02:13:58;;;;;;;11.63;9.37;;;;;;;;;;5048982;28;20296;-63
2023/05/06 02:16:30;;;;;;;9.50;8.60;;;;;;;;;;5033057;28;20282;-63
2023/05/06 02:18:57;;;;;;;9.87;8.87;;;;;;;;;;5060666;28;20229;-63
2023/05/06 02:21:26;;;;;;;15.27;11.90;;;;;;;;;;5061834;28;20221;-63
2023/05/06 02:23:54;;;;;;;11.43;9.70;;;;;;;;;;5038233;28;20214;-63
2023/05/06 02:26:21;;;;;;;9.53;8.33;;;;;;;;;;5040279;28;20287;-63
2023/05/06 02:28:48;;;;;;;8.97;7.73;;;;;;;;;;5055234;28;20202;-63
2023/05/06 02:31:17;;;;;;;9.07;8.27;;;;;;;;;;5054656;28;20244;-62
2023/05/06 02:33:46;;;;;;;10.50;9.40;;;;;;;;;;5039492;28;20206;-63
2023/05/06 02:36:15;;;;;;;9.50;8.00;;;;;;;;;;5063210;28;20236;-63
2023/05/06 02:38:42;;;;;;;9.37;7.50;;;;;;;;;;5041865;28;20385;-63
2023/05/06 02:41:10;;;;;;;8.63;7.83;;;;;;;;;;5044881;28;20700;-63
2023/05/06 02:43:38;;;;;;;8.27;7.47;;;;;;;;;;5042139;28;20250;-64
2023/05/06 02:46:05;;;;;;;8.67;7.77;;;;;;;;;;5057780;28;20294;-63
2023/05/06 02:48:34;;;;;;;8.47;7.57;;;;;;;;;;5042908;28;20671;-63
2023/05/06 02:51:03;;;;;;;8.50;7.53;;;;;;;;;;5040386;28;20283;-62
2023/05/06 02:53:30;;;;;;;7.73;6.70;;;;;;;;;;5040382;28;20394;-62
2023/05/06 02:55:58;;;;;;;7.80;7.00;;;;;;;;;;5037754;28;20661;-64
2023/05/06 02:58:26;;;;;;;7.10;6.40;;;;;;;;;;5059139;28;20214;-63
2023/05/06 03:00:53;;;;;;;7.67;6.97;;;;;;;;;;5031864;28;20735;-62
2023/05/06 03:03:22;;;;;;;9.80;7.20;;;;;;;;;;5055487;28;20293;-63
2023/05/06 03:05:49;;;;;;;8.53;6.97;;;;;;;;;;5042782;28;20335;-64
2023/05/06 03:08:17;;;;;;;10.07;7.07;;;;;;;;;;5059281;28;20233;-63
2023/05/06 03:10:46;;;;;;;15.27;11.57;;;;;;;;;;5057870;28;20209;-63
2023/05/06 03:13:13;;;;;;;23.33;16.33;;;;;;;;;;5040489;28;20620;-63
2023/05/06 03:15:41;;;;;;;36.33;26.70;;;;;;;;;;5036262;28;20226;-62
2023/05/06 03:18:08;;;;;;;13.47;11.07;;;;;;;;;;5040200;28;20271;-63
2023/05/06 03:20:37;;;;;;;8.33;7.53;;;;;;;;;;5059327;28;20222;-62
2023/05/06 03:23:05;;;;;;;8.40;6.63;;;;;;;;;;5040019;28;20243;-61
2023/05/06 03:25:33;;;;;;;8.30;7.50;;;;;;;;;;5039380;28;20319;-63
2023/05/06 03:28:02;;;;;;;7.40;6.80;;;;;;;;;;5053940;28;20694;-61
2023/05/06 03:30:29;;;;;;;7.00;6.40;;;;;;;;;;5035545;28;21182;-62
2023/05/06 03:33:00;;;;;;;7.37;6.67;;;;;;;;;;5037087;28;20667;-63
2023/05/06 03:35:27;;;;;;;8.13;7.33;;;;;;;;;;5044869;28;20502;-63
2023/05/06 03:37:56;;;;;;;7.97;7.23;;;;;;;;;;5039880;28;20282;-61
2023/05/06 03:40:25;;;;;;;18.57;14.67;;;;;;;;;;5040871;28;20226;-63
2023/05/06 03:42:53;;;;;;;14.07;11.23;;;;;;;;;;5034065;28;20296;-63
2023/05/06 03:45:20;;;;;;;18.57;13.13;;;;;;;;;;5043692;28;20201;-63
2023/05/06 03:47:48;;;;;;;16.67;11.37;;;;;;;;;;5042869;28;20229;-63
2023/05/06 03:50:16;;;;;;;15.67;10.77;;;;;;;;;;5039965;28;20214;-61
2023/05/06 03:52:45;;;;;;;11.93;10.47;;;;;;;;;;5043220;28;20271;-62
2023/05/06 03:55:13;;;;;;;14.63;9.97;;;;;;;;;;5058394;28;20214;-63
2023/05/06 03:57:42;;;;;;;15.47;11.83;;;;;;;;;;5042710;28;20216;-64
2023/05/06 04:00:10;;;;;;;13.50;12.03;;;;;;;;;;5038720;28;20253;-63
2023/05/06 04:02:38;;;;;;;11.70;10.50;;;;;;;;;;5035083;28;20315;-64
2023/05/06 04:05:06;;;;;;;12.03;9.23;;;;;;;;;;5035662;28;20205;-63
2023/05/06 04:07:34;;;;;;;8.00;7.13;;;;;;;;;;5037340;28;20202;-62
2023/05/06 04:10:01;;;;;;;8.67;7.83;;;;;;;;;;5057251;28;20664;-64
2023/05/06 04:12:29;;;;;;;7.63;6.83;;;;;;;;;;5042152;28;20296;-63
2023/05/06 04:14:58;;;;;;;7.60;6.90;;;;;;;;;;5038189;28;20201;-63
2023/05/06 04:17:31;;;;;;;7.60;6.90;;;;;;;;;;5060956;28;20213;-63
2023/05/06 04:20:00;;;;;;;7.80;7.00;;;;;;;;;;5029037;28;20812;-63
2023/05/06 04:22:28;;;;;;;8.07;7.27;;;;;;;;;;5051411;28;20225;-63
2023/05/06 04:24:59;;;;;;;13.00;9.13;;;;;;;;;;5054109;28;20561;-63
2023/05/06 04:27:30;;;;;;;9.37;8.47;;;;;;;;;;5038087;28;20204;-63
2023/05/06 04:29:59;;;;;;;10.20;9.13;;;;;;;;;;5052934;28;20202;-64
2023/05/06 04:32:27;;;;;;;8.90;8.10;;;;;;;;;;5054233;28;20714;-63
2023/05/06 04:34:56;;;;;;;7.50;6.80;;;;;;;;;;5055005;28;20209;-63
2023/05/06 04:37:23;;;;;;;9.30;6.40;;;;;;;;;;5035946;28;20252;-63
2023/05/06 04:39:50;;;;;;;7.70;5.83;;;;;;;;;;5054438;28;20297;-63
2023/05/06 04:42:18;;;;;;;6.90;4.90;;;;;;;;;;5052540;28;20553;-64
2023/05/06 04:44:45;;;;;;;14.47;4.30;;;;;;;;;;5051900;28;20198;-63
2023/05/06 04:47:13;;;;;;;7.33;4.47;;;;;;;;;;5050441;28;20282;-63
2023/05/06 04:49:41;;;;;;;10.40;4.20;;;;;;;;;;5048448;28;20227;-63
2023/05/06 04:52:08;;;;;;;80.33;5.27;;;;;;;;;;5052013;28;20683;-63
2023/05/06 04:54:36;;;;;;;15.43;3.97;;;;;;;;;;5030258;28;20225;-64
2023/05/06 04:57:03;;;;;;;16.50;4.47;;;;;;;;;;5051689;28;20909;-63
2023/05/06 04:59:30;;;;;;;8.53;3.97;;;;;;;;;;5030513;28;20252;-63
2023/05/06 05:01:58;;;;;;;4.40;3.97;;;;;;;;;;5052298;28;20226;-63
2023/05/06 05:04:25;;;;;;;4.03;3.73;;;;;;;;;;5038012;28;20201;-63
2023/05/06 05:06:53;;;;;;;6.87;4.33;;;;;;;;;;5053255;28;20225;-63
2023/05/06 05:09:20;;;;;;;5.37;4.97;;;;;;;;;;5055012;28;20221;-63
2023/05/06 05:11:48;;;;;;;6.23;4.80;;;;;;;;;;5037297;28;20202;-63
2023/05/06 05:14:15;;;;;;;5.80;5.20;;;;;;;;;;5052380;28;20202;-63
2023/05/06 05:16:44;;;;;;;5.87;5.03;;;;;;;;;;5043479;28;20248;-63
2023/05/06 05:19:11;;;;;;;7.33;6.30;;;;;;;;;;5040052;28;21135;-63
2023/05/06 05:21:39;;;;;;;6.10;5.30;;;;;;;;;;5039939;28;20306;-62
2023/05/06 05:24:07;;;;;;;5.00;4.60;;;;;;;;;;5041989;28;20236;-63
2023/05/06 05:26:34;;;;;;;4.83;4.43;;;;;;;;;;5054406;28;20232;-62
2023/05/06 05:29:02;;;;;;;3.70;3.40;;;;;;;;;;5056193;28;20202;-61
2023/05/06 05:31:30;;;;;;;2.75;2.55;;;;;;;;;;5037098;28;20663;-63
2023/05/06 05:33:59;;;;;;;2.47;2.30;;;;;;;;;;5034899;28;20286;-64
2023/05/06 05:36:27;;;;;;;2.42;2.22;;;;;;;;;;5041479;28;20225;-63
2023/05/06 05:38:56;;;;;;;2.47;2.20;;;;;;;;;;5037688;28;20217;-62
2023/05/06 05:41:25;;;;;;;2.22;2.03;;;;;;;;;;5052312;28;20939;-63
2023/05/06 05:43:52;;;;;;;1.88;1.77;;;;;;;;;;5052812;28;20682;-62
2023/05/06 05:46:20;;;;;;;2.13;1.92;;;;;;;;;;5041989;28;20225;-61
2023/05/06 05:48:47;;;;;;;2.67;1.92;;;;;;;;;;5041362;28;20575;-62
2023/05/06 05:51:17;;;;;;;3.38;3.17;;;;;;;;;;5056255;28;20210;-63
2023/05/06 05:53:44;;;;;;;4.68;4.20;;;;;;;;;;5043685;28;20244;-63
2023/05/06 05:56:12;;;;;;;3.47;3.10;;;;;;;;;;5037334;28;20233;-63
2023/05/06 05:58:39;;;;;;;2.90;2.60;;;;;;;;;;5057062;28;20210;-63
2023/05/06 06:01:06;;;;;;;2.90;2.65;;;;;;;;;;5033593;28;20311;-63
2023/05/06 06:03:34;;;;;;;2.50;2.30;;;;;;;;;;5053255;28;20362;-62
2023/05/06 06:06:01;;;;;;;2.70;2.50;;;;;;;;;;5043090;28;20309;-61
2023/05/06 06:08:30;;;;;;;3.42;2.88;;;;;;;;;;5041479;28;20202;-65
2023/05/06 06:10:58;;;;;;;2.78;2.58;;;;;;;;;;5054378;28;20209;-63
2023/05/06 06:13:26;;;;;;;2.80;2.60;;;;;;;;;;5055270;28;20264;-62
2023/05/06 06:15:58;;;;;;;2.90;2.70;;;;;;;;;;5056130;28;20221;-64
2023/05/06 06:18:25;;;;;;;3.00;2.80;;;;;;;;;;5059177;28;20353;-62
2023/05/06 06:20:53;;;;;;;3.08;2.88;;;;;;;;;;5037409;28;20272;-63
2023/05/06 06:23:20;;;;;;;3.17;2.97;;;;;;;;;;5056306;28;20229;-63
2023/05/06 06:25:48;;;;;;;3.17;2.95;;;;;;;;;;5037171;28;20217;-63
2023/05/06 06:28:15;;;;;;;3.35;2.80;;;;;;;;;;5039864;28;20729;-63
2023/05/06 06:30:42;;;;;;;3.85;3.10;;;;;;;;;;5038840;28;20555;-63
2023/05/06 06:33:10;;;;;;;4.18;3.42;;;;;;;;;;5038993;28;20301;-63
2023/05/06 06:35:37;;;;;;;3.63;3.33;;;;;;;;;;5064854;28;20235;-61
2023/05/06 06:38:04;;;;;;;3.05;2.75;;;;;;;;;;5052715;28;20221;-63
2023/05/06 06:40:32;;;;;;;3.10;2.90;;;;;;;;;;5053686;28;20209;-63
2023/05/06 06:43:00;;;;;;;2.58;2.38;;;;;;;;;;5056800;28;20202;-63
2023/05/06 06:45:27;;;;;;;2.70;2.50;;;;;;;;;;5056093;28;20260;-62
2023/05/06 06:47:54;;;;;;;3.40;2.53;;;;;;;;;;5038912;28;20289;-63
2023/05/06 06:50:22;;;;;;;5.03;3.33;;;;;;;;;;5059974;28;20308;-63
2023/05/06 06:52:50;;;;;;;3.10;2.88;;;;;;;;;;5055464;28;20216;-62
2023/05/06 06:55:18;;;;;;;3.03;2.72;;;;;;;;;;5041699;28;20206;-62
2023/05/06 06:57:47;;;;;;;5.32;4.88;;;;;;;;;;5055129;28;20302;-64
2023/05/06 07:00:15;;;;;;;2.95;2.53;;;;;;;;;;5035665;28;20622;-63
2023/05/06 07:02:45;;;;;;;2.70;2.50;;;;;;;;;;5061178;28;20276;-62
2023/05/06 07:05:13;;;;;;;3.42;2.50;;;;;;;;;;5061935;28;20659;-62
2023/05/06 07:07:40;;;;;;;2.28;2.08;;;;;;;;;;5037128;28;20229;-63
2023/05/06 07:10:09;;;;;;;2.33;2.13;;;;;;;;;;5053747;28;20203;-63
2023/05/06 07:12:38;;;;;;;3.25;2.15;;;;;;;;;;5038960;28;20209;-63
2023/05/06 07:15:07;;;;;;;3.80;2.25;;;;;;;;;;5060223;28;20213;-65
2023/05/06 07:17:35;;;;;;;2.85;2.38;;;;;;;;;;5065463;28;20197;-63
2023/05/06 07:20:03;;;;;;;2.45;2.22;;;;;;;;;;5064395;28;21795;-62
2023/05/06 07:22:31;;;;;;;3.00;2.70;;;;;;;;;;5058502;28;20233;-63
2023/05/06 07:24:58;;;;;;;2.60;2.40;;;;;;;;;;5055949;28;20289;-62
2023/05/06 07:27:29;;;;;;;3.90;2.35;;;;;;;;;;5064543;28;20253;-63
2023/05/06 07:29:57;;;;;;;2.10;2.00;;;;;;;;;;5054675;28;20241;-62
2023/05/06 07:32:24;;;;;;;7.90;5.18;;;;;;;;;;5038622;28;20205;-62
2023/05/06 07:34:52;;;;;;;2.10;2.00;;;;;;;;;;5059994;28;20214;-63
2023/05/06 07:37:19;;;;;;;4.82;3.80;;;;;;;;;;5044815;28;20408;-62
2023/05/06 07:39:47;;;;;;;2.45;2.25;;;;;;;;;;5057630;28;20722;-63
2023/05/06 07:42:14;;;;;;;3.88;2.78;;;;;;;;;;5033875;28;20316;-63
2023/05/06 07:44:42;;;;;;;4.50;2.80;;;;;;;;;;5044848;28;20209;-62
2023/05/06 07:47:09;;;;;;;5.30;3.42;;;;;;;;;;5029775;28;20305;-63
2023/05/06 07:49:37;;;;;;;2.00;1.90;;;;;;;;;;5043935;28;20210;-62
2023/05/06 07:52:05;;;;;;;3.55;2.20;;;;;;;;;;5030013;28;20209;-61
2023/05/06 07:54:33;;;;;;;2.20;2.00;;;;;;;;;;5036936;28;20271;-62
2023/05/06 07:57:01;;;;;;;2.03;1.80;;;;;;;;;;5040428;28;20265;-62
2023/05/06 07:59:28;;;;;;;2.53;1.90;;;;;;;;;;5026162;28;20218;-63
2023/05/06 08:01:56;;;;;;;2.00;1.80;;;;;;;;;;5043322;28;20230;-63
2023/05/06 08:04:23;;;;;;;1.92;1.80;;;;;;;;;;5046530;28;20302;-64
2023/05/06 08:06:51;;;;;;;1.80;1.70;;;;;;;;;;5046665;28;20868;-62
2023/05/06 08:09:18;;;;;;;2.10;2.00;;;;;;;;;;5059431;28;20209;-62
2023/05/06 08:11:50;;;;;;;2.53;1.92;;;;;;;;;;5045789;28;20224;-63
2023/05/06 08:14:17;;;;;;;2.15;1.98;;;;;;;;;;5035494;28;20319;-62
2023/05/06 08:16:45;;;;;;;1.73;1.60;;;;;;;;;;5041873;28;20229;-64
2023/05/06 08:19:12;;;;;;;1.88;1.60;;;;;;;;;;5032057;28;20288;-63
2023/05/06 08:21:40;;;;;;;3.47;1.80;;;;;;;;;;5046364;28;20257;-64
2023/05/06 08:24:07;;;;;;;1.90;1.80;;;;;;;;;;5054241;28;20201;-63
2023/05/06 08:26:35;;;;;;;1.73;1.63;;;;;;;;;;5033253;28;20236;-63
2023/05/06 08:29:02;;;;;;;4.03;2.00;;;;;;;;;;5046213;28;20220;-62
2023/05/06 08:31:30;;;;;;;5.07;3.33;;;;;;;;;;5029824;28;21988;-63
2023/05/06 08:33:57;;;;;;;2.50;2.30;;;;;;;;;;5032819;28;20249;-62
2023/05/06 08:36:25;;;;;;;4.15;2.55;;;;;;;;;;5048525;28;20253;-62
2023/05/06 08:38:52;;;;;;;2.33;2.10;;;;;;;;;;5069433;28;20205;-63
2023/05/06 08:41:21;;;;;;;3.83;2.10;;;;;;;;;;5067454;28;20228;-62
2023/05/06 08:43:49;;;;;;;3.65;2.10;;;;;;;;;;5029173;28;20717;-62
2023/05/06 08:46:17;;;;;;;3.05;1.98;;;;;;;;;;5033346;28;20241;-63
2023/05/06 08:48:45;;;;;;;2.88;2.13;;;;;;;;;;5050849;28;20817;-61
2023/05/06 08:51:14;;;;;;;1.90;1.80;;;;;;;;;;5043278;28;20290;-62
2023/05/06 08:53:48;;;;;;;2.00;1.90;;;;;;;;;;5028240;28;20809;-62
2023/05/06 08:56:16;;;;;;;2.20;2.10;;;;;;;;;;5027856;28;20236;-62
2023/05/06 08:58:47;;;;;;;1.80;1.60;;;;;;;;;;5032071;28;20291;-61
2023/05/06 09:01:17;;;;;;;3.08;1.70;;;;;;;;;;5037697;28;20298;-63
2023/05/06 09:03:46;;;;;;;2.30;1.35;;;;;;;;;;5047504;28;20614;-63
2023/05/06 09:06:14;;;;;;;1.65;1.40;;;;;;;;;;5045114;28;20224;-63
2023/05/06 09:08:41;;;;;;;3.50;2.35;;;;;;;;;;5050232;28;20629;-64
2023/05/06 09:11:25;;;;;;;1.67;1.40;;;;;;;;;;5048517;28;20370;-62
2023/05/06 09:14:07;;;;;;;1.20;1.10;;;;;;;;;;5057266;28;20726;-63
2023/05/06 09:16:34;;;;;;;6.22;1.95;;;;;;;;;;5039995;28;20465;-62
2023/05/06 09:19:03;;;;;;;2.42;2.25;;;;;;;;;;5032447;28;20701;-62
2023/05/06 09:21:32;;;;;;;1.23;1.20;;;;;;;;;;5030210;28;20268;-61
2023/05/06 09:24:00;;;;;;;1.73;1.63;;;;;;;;;;5039879;28;20210;-60
2023/05/06 09:26:31;;;;;;;1.20;1.10;;;;;;;;;;5042620;28;20304;-62
2023/05/06 09:28:59;;;;;;;2.17;1.50;;;;;;;;;;5031240;28;21595;-62
2023/05/06 09:31:28;;;;;;;1.90;1.30;;;;;;;;;;5051517;28;20225;-61
2023/05/06 09:33:58;;;;;;;2.42;1.20;;;;;;;;;;5033355;28;20222;-63
2023/05/06 09:36:26;;;;;;;1.40;1.30;;;;;;;;;;5029881;28;20221;-63
2023/05/06 09:38:55;;;;;;;2.88;1.02;;;;;;;;;;5032249;28;20296;-62
2023/05/06 09:41:24;;;;;;;1.75;1.00;;;;;;;;;;5047331;28;20538;-62
2023/05/06 09:43:55;;;;;;;2.20;1.27;;;;;;;;;;5034389;28;20226;-62
2023/05/06 09:46:23;;;;;;;2.20;1.38;;;;;;;;;;5029164;28;20230;-63
2023/05/06 09:48:51;;;;;;;1.42;1.33;;;;;;;;;;5030408;28;20230;-62
2023/05/06 09:51:19;;;;;;;2.75;1.63;;;;;;;;;;5054485;28;20198;-64
2023/05/06 09:53:47;;;;;;;3.10;1.60;;;;;;;;;;5043911;28;20210;-62
2023/05/06 09:56:15;;;;;;;1.98;1.80;;;;;;;;;;5048120;28;20719;-63
2023/05/06 09:58:43;;;;;;;1.52;1.40;;;;;;;;;;5023882;28;20675;-63
2023/05/06 10:01:15;;;;;;;2.33;1.80;;;;;;;;;;5026339;28;20299;-65
2023/05/06 10:03:55;;;;;;;1.70;1.40;;;;;;;;;;5044544;28;20679;-65
2023/05/06 10:06:24;;;;;;;2.90;2.70;;;;;;;;;;5043466;28;20729;-62
2023/05/06 10:08:52;;;;;;;2.33;1.50;;;;;;;;;;5030128;28;20210;-64
2023/05/06 10:11:21;;;;;;;1.30;1.20;;;;;;;;;;5050894;28;20205;-63
2023/05/06 10:13:49;;;;;;;2.17;1.33;;;;;;;;;;5041341;28;20824;-62
2023/05/06 10:16:18;;;;;;;2.08;1.80;;;;;;;;;;5025667;28;20522;-62
2023/05/06 10:18:46;;;;;;;2.08;1.75;;;;;;;;;;5027312;28;20698;-63
2023/05/06 10:21:16;;;;;;;1.92;1.33;;;;;;;;;;5048932;28;20641;-62
2023/05/06 10:23:49;;;;;;;2.78;1.60;;;;;;;;;;5033894;28;20225;-62
2023/05/06 10:26:19;;;;;;;2.53;1.40;;;;;;;;;;5034535;28;20217;-62
2023/05/06 10:28:51;;;;;;;2.05;1.45;;;;;;;;;;5027512;28;20201;-61
2023/05/06 10:31:18;;;;;;;2.63;1.38;;;;;;;;;;5049874;28;20232;-62
2023/05/06 10:33:48;;;;;;;1.48;1.30;;;;;;;;;;5043865;28;20822;-63
2023/05/06 10:36:21;;;;;;;1.55;1.25;;;;;;;;;;5049118;28;20225;-62
2023/05/06 10:38:53;;;;;;;1.35;1.20;;;;;;;;;;5052291;28;20267;-62
2023/05/06 10:41:21;;;;;;;3.22;1.20;;;;;;;;;;5032338;28;20202;-61
2023/05/06 10:43:55;;;;;;;1.75;1.20;;;;;;;;;;5030277;28;21095;-63
2023/05/06 10:46:25;;;;;;;1.42;1.23;;;;;;;;;;5046922;28;20305;-62
2023/05/06 10:49:09;;;;;;;1.45;1.10;;;;;;;;;;5048454;28;20678;-62
2023/05/06 10:51:40;;;;;;;1.77;1.30;;;;;;;;;;5029784;28;20206;-62
2023/05/06 10:54:08;;;;;;;1.30;1.20;;;;;;;;;;5047956;28;20918;-62
2023/05/06 10:56:39;;;;;;;1.00;1.00;;;;;;;;;;5031080;28;20229;-62
2023/05/06 10:59:07;;;;;;;2.65;1.42;;;;;;;;;;5057171;28;20198;-62
2023/05/06 11:01:35;;;;;;;3.42;1.17;;;;;;;;;;5053472;28;20207;-63
2023/05/06 11:04:10;;;;;;;1.58;1.20;;;;;;;;;;5057315;28;20671;-63
2023/05/06 11:06:37;;;;;;;1.95;1.20;;;;;;;;;;5053241;28;20229;-63
2023/05/06 11:09:06;;;;;;;0.93;0.93;;;;;;;;;;5035745;28;20635;-62
2023/05/06 11:11:52;;;;;;;2.58;2.30;;;;;;;;;;5046429;28;20206;-62
2023/05/06 11:14:45;;;;;;;3.00;2.70;;;;;;;;;;5049663;28;20225;-64
2023/05/06 11:17:29;;;;;;;3.55;1.20;;;;;;;;;;5020641;28;20258;-62
2023/05/06 11:20:29;;;;;;;1.30;1.20;;;;;;;;;;5023188;28;20210;-62
2023/05/06 11:22:56;;;;;;;2.45;1.40;;;;;;;;;;4982234;28;20462;-61
2023/05/06 11:25:40;;;;;;;3.30;2.08;;;;;;;;;;5014722;28;20328;-62
2023/05/06 11:28:11;;;;;;;2.05;1.23;;;;;;;;;;5043314;28;20258;-63
2023/05/06 11:30:40;;;;;;;1.13;1.10;;;;;;;;;;5020603;28;20217;-63
2023/05/06 11:33:08;;;;;;;1.30;1.20;;;;;;;;;;5046447;28;20224;-62
2023/05/06 11:35:36;;;;;;;1.00;1.00;;;;;;;;;;5034093;28;20236;-62
2023/05/06 11:38:04;;;;;;;2.65;1.08;;;;;;;;;;5039462;28;20220;-62
2023/05/06 11:40:32;;;;;;;1.88;1.25;;;;;;;;;;5055780;28;20687;-62
2023/05/06 11:43:09;;;;;;;1.40;1.30;;;;;;;;;;5054047;28;20307;-64
2023/05/06 11:45:43;;;;;;;1.42;0.98;;;;;;;;;;5052065;28;20229;-63
2023/05/06 11:48:14;;;;;;;2.10;1.20;;;;;;;;;;5036383;28;20471;-63
2023/05/06 11:50:48;;;;;;;5.72;1.85;;;;;;;;;;5045486;28;20377;-63
2023/05/06 11:53:20;;;;;;;3.08;1.20;;;;;;;;;;5050891;28;20683;-62
2023/05/06 11:55:47;;;;;;;1.10;1.10;;;;;;;;;;5052738;28;20229;-62
2023/05/06 11:58:16;;;;;;;1.40;1.17;;;;;;;;;;5035056;28;20213;-64
2023/05/06 12:00:52;;;;;;;2.15;1.23;;;;;;;;;;5034736;28;20558;-63
2023/05/06 12:03:20;;;;;;;2.15;1.40;;;;;;;;;;5038749;28;20232;-61
2023/05/06 12:05:48;;;;;;;2.70;1.88;;;;;;;;;;5039505;28;20226;-62
2023/05/06 12:08:18;;;;;;;1.30;1.20;;;;;;;;;;5046236;28;20209;-63
2023/05/06 12:10:55;;;;;;;6.55;4.18;;;;;;;;;;5056653;28;20311;-63
2023/05/06 12:13:23;;;;;;;2.10;1.17;;;;;;;;;;5056560;28;20205;-64
2023/05/06 12:15:50;;;;;;;1.15;0.93;;;;;;;;;;5034008;28;20260;-63
2023/05/06 12:18:18;;;;;;;1.20;1.20;;;;;;;;;;5045338;28;23511;-63
2023/05/06 12:20:46;;;;;;;2.30;1.20;;;;;;;;;;5024297;28;20660;-61
2023/05/06 12:23:14;;;;;;;1.08;1.08;;;;;;;;;;5044959;28;20303;-63
2023/05/06 12:25:47;;;;;;;1.30;1.10;;;;;;;;;;5031007;28;20306;-63
2023/05/06 12:28:15;;;;;;;1.20;1.10;;;;;;;;;;5057187;28;20214;-64
2023/05/06 12:30:43;;;;;;;1.65;1.30;;;;;;;;;;5057928;28;20198;-62
2023/05/06 12:33:11;;;;;;;1.92;1.40;;;;;;;;;;5023660;28;20309;-62
2023/05/06 12:35:39;;;;;;;1.00;1.00;;;;;;;;;;5021333;28;20228;-62
2023/05/06 12:38:13;;;;;;;2.58;1.27;;;;;;;;;;5051413;28;20730;-63
2023/05/06 12:40:41;;;;;;;1.48;1.00;;;;;;;;;;5030820;28;20209;-63
2023/05/06 12:43:09;;;;;;;2.67;1.63;;;;;;;;;;5039302;28;20232;-63
2023/05/06 12:45:39;;;;;;;2.95;1.52;;;;;;;;;;5022605;28;20229;-62
2023/05/06 12:48:14;;;;;;;1.55;1.20;;;;;;;;;;5028277;28;20202;-62
2023/05/06 12:50:44;;;;;;;1.67;1.20;;;;;;;;;;5028110;28;20206;-61
2023/05/06 12:53:29;;;;;;;2.17;1.92;;;;;;;;;;5029695;28;20212;-63
2023/05/06 12:55:57;;;;;;;3.42;2.10;;;;;;;;;;5033981;28;20895;-62
2023/05/06 12:58:24;;;;;;;2.83;2.08;;;;;;;;;;5039692;28;20308;-62
2023/05/06 13:00:52;;;;;;;2.30;1.20;;;;;;;;;;5037350;28;20459;-64
2023/05/06 13:03:20;;;;;;;1.48;1.20;;;;;;;;;;5039409;28;20488;-62
2023/05/06 13:05:49;;;;;;;1.20;1.10;;;;;;;;;;5047132;28;20245;-63
2023/05/06 13:08:16;;;;;;;1.30;1.20;;;;;;;;;;5031322;28;21623;-64
2023/05/06 13:10:44;;;;;;;1.20;1.10;;;;;;;;;;5050493;28;20323;-63
2023/05/06 13:13:12;;;;;;;2.35;1.20;;;;;;;;;;5042192;28;21241;-61
2023/05/06 13:15:39;;;;;;;1.48;1.20;;;;;;;;;;5020301;28;20739;-63
2023/05/06 13:18:09;;;;;;;3.60;1.23;;;;;;;;;;5021037;28;20750;-62
2023/05/06 13:20:45;;;;;;;1.30;0.93;;;;;;;;;;5051869;28;20216;-63
2023/05/06 13:23:12;;;;;;;1.98;1.20;;;;;;;;;;5037480;28;20229;-63
2023/05/06 13:25:49;;;;;;;3.15;1.55;;;;;;;;;;5052693;28;20240;-63
2023/05/06 13:28:35;;;;;;;1.10;1.10;;;;;;;;;;5049461;28;20194;-63
2023/05/06 13:31:03;;;;;;;1.10;1.10;;;;;;;;;;5049531;28;20205;-63
2023/05/06 13:33:34;;;;;;;1.58;1.00;;;;;;;;;;5032789;28;20552;-62
2023/05/06 13:36:11;;;;;;;2.70;1.13;;;;;;;;;;5043886;28;20580;-62
2023/05/06 13:38:51;;;;;;;1.48;1.20;;;;;;;;;;5058564;28;20209;-63
2023/05/06 13:41:20;;;;;;;2.25;1.17;;;;;;;;;;5043547;28;20289;-64
2023/05/06 13:43:59;;;;;;;1.98;1.10;;;;;;;;;;5053062;28;20225;-63
2023/05/06 13:46:27;;;;;;;2.00;1.30;;;;;;;;;;5028586;28;20295;-62
2023/05/06 13:48:54;;;;;;;1.40;1.13;;;;;;;;;;5037475;28;20206;-63
2023/05/06 13:51:22;;;;;;;2.08;1.17;;;;;;;;;;5044563;28;20233;-62
2023/05/06 13:53:50;;;;;;;1.17;1.08;;;;;;;;;;5038038;28;20215;-61
2023/05/06 13:56:18;;;;;;;3.28;1.20;;;;;;;;;;5029051;28;20294;-64
2023/05/06 13:58:45;;;;;;;2.05;1.50;;;;;;;;;;5023119;28;20280;-62
2023/05/06 14:01:13;;;;;;;2.40;1.30;;;;;;;;;;5021119;28;20210;-63
2023/05/06 14:03:40;;;;;;;3.08;1.20;;;;;;;;;;5041973;28;21841;-62
2023/05/06 14:06:08;;;;;;;2.22;1.10;;;;;;;;;;5032821;28;20286;-62
2023/05/06 14:08:35;;;;;;;4.65;1.25;;;;;;;;;;5034297;28;20271;-63
2023/05/06 14:11:02;;;;;;;1.45;1.02;;;;;;;;;;5041055;28;20198;-63
2023/05/06 14:13:30;;;;;;;1.40;1.15;;;;;;;;;;5032738;28;20210;-63
2023/05/06 14:15:58;;;;;;;2.25;1.10;;;;;;;;;;5028463;28;20237;-63
2023/05/06 14:18:26;;;;;;;1.33;1.20;;;;;;;;;;5025677;28;20579;-63
2023/05/06 14:20:55;;;;;;;1.63;1.25;;;;;;;;;;5042942;28;20606;-62
2023/05/06 14:23:22;;;;;;;0.93;0.93;;;;;;;;;;5028400;28;20217;-63
2023/05/06 14:25:49;;;;;;;2.42;1.10;;;;;;;;;;5030408;28;20217;-63
2023/05/06 14:28:17;;;;;;;3.22;1.73;;;;;;;;;;5037470;28;20538;-63
2023/05/06 14:30:44;;;;;;;1.25;1.10;;;;;;;;;;5036159;28;20213;-63
2023/05/06 14:33:14;;;;;;;1.98;1.10;;;;;;;;;;5027980;28;20336;-63
2023/05/06 14:35:42;;;;;;;4.03;2.75;;;;;;;;;;5037313;28;20279;-62
2023/05/06 14:38:10;;;;;;;1.83;1.40;;;;;;;;;;5030487;28;20337;-63
2023/05/06 14:40:37;;;;;;;1.20;1.02;;;;;;;;;;5058321;28;20209;-64
2023/05/06 14:43:06;;;;;;;1.20;1.10;;;;;;;;;;5050679;28;20225;-63
2023/05/06 14:45:33;;;;;;;1.83;1.10;;;;;;;;;;5056882;28;20587;-64
2023/05/06 14:48:01;;;;;;;1.83;1.20;;;;;;;;;;5049932;28;20213;-64
2023/05/06 14:50:30;;;;;;;2.53;1.40;;;;;;;;;;5052659;28;20550;-63
2023/05/06 14:52:57;;;;;;;2.83;1.05;;;;;;;;;;5057382;28;20506;-65